Spirit Lake, ID

6:35 AM PST on December 06, 2016 (GMT -0800)
Spirit Lake Idaho | | Change Station

Elev 2604 ft 47.96 °N, 116.84 °W | Updated 9 seconds ago

Scattered Clouds
Scattered Clouds
18.5 °F
Feels Like 18 °F
N
0.0
Wind Variable Wind from NNW
Gusts 0.0 mph

Today
High -- | Low -- °F
--% Chance of Precip.
Yesterday
High -- | Low -- °F
Precip. -- in
Pressure 30.10 in
Visibility 10.0 miles
Clouds Scattered Clouds 10000 ft
Windchill 18 °F
Dew Point 9 °F
Humidity 66%
Rainfall 0.00 in
Snow Depth Not available.
7:22 AM 3:54 PM
Waxing Crescent, 42% visible
METAR KCOE 061356Z AUTO 02015KT 10SM SCT100 M06/M09 A2995 RMK AO2 SLP191 T10561094 FZRANO
Pressure 30.10 in
Visibility 10.0 miles
Clouds Scattered Clouds 10000 ft
Windchill 18 °F
Dew Point 9 °F
Humidity 66%
Rainfall 0.00 in
Snow Depth Not available.
7:22 AM 3:54 PM
Waxing Crescent, 42% visible
METAR KCOE 061356Z AUTO 02015KT 10SM SCT100 M06/M09 A2995 RMK AO2 SLP191 T10561094 FZRANO

10-Day Weather Forecast

Almanac

Astronomy

Dec. 06, 2016 Rise Set
Actual Time
Civil Twilight
Nautical Twilight
Astronomical Twilight
Moon
Length of Visible Light
Length of Day
Tomorrow will be .
, % of the Moon is Illuminated

Today's Extremes

State Highs State Lows

Community

WunderPhotos

Upload Photos

1,955,949 photos uploaded!

WunderBlog® & News

Nearby

Air Quality

  Air Quality AQ Index Pollutant
Not available.

Snow Depth

Station Depth Elevation

Earthquake Activity

City Distance Mag. Time & Date
Minimum magnitude displayed is 2.5.

Coastal Water Temperatures

Place Temperature

Stations

Nearby Weather Stations

Station Location Temp. Windchill Dew Point Humidity Wind Precip. Elev Updated Type
                   

Watches & Warnings

There are currently no watches in effect.